Big Brook, Canada
Current Conditions -  °F | °C
As of 2:00 AM on Sunday 23 Nov 2014 (Local Time) from CYAY Reporting Station
Broken Clouds Broken Clouds  
Wind Chill:   Ceiling: 2600
Heat Index: 21°   Visibility: 9mi
Dew Point: 16°   Wind: 22mph
Humidity: 80%   Direction: 260°W
Pressure: 29.44"   Gusts: 30mph
Location:  51.51°N, 56.14°W
Report Text: CYAY 230500Z AUTO 26019G26KT 9SM BKN026 M06/M09 A2944 RMK SLP971
Loading
Personal Weather Stations






























Interactive Weather Map New forecast layout! Learn more

10-Day Weather Forecast

Advertisements
Track Severe Weather on mobile